createdAt,value
2023-01-13T00:00:54.475Z,92.39
2023-01-13T00:03:57.451Z,91.89
2023-01-13T00:07:00.110Z,91.72
2023-01-13T00:10:04.988Z,91.36
2023-01-13T00:13:08.066Z,91.94
2023-01-13T00:16:12.911Z,91.23
2023-01-13T00:19:15.613Z,90.93
2023-01-13T00:22:18.359Z,91.46
2023-01-13T00:25:22.625Z,92.12
2023-01-13T00:28:25.897Z,91.34
2023-01-13T00:31:29.700Z,91.52
2023-01-13T00:34:32.493Z,91.68
2023-01-13T00:37:37.546Z,91.33
2023-01-13T00:40:41.528Z,91.98
2023-01-13T00:43:44.199Z,91.40
2023-01-13T00:46:46.962Z,90.76
2023-01-13T00:49:53.267Z,90.83
2023-01-13T00:53:00.153Z,91.53
2023-01-13T00:56:06.089Z,91.54
2023-01-13T00:59:11.473Z,91.29
2023-01-13T01:02:14.266Z,91.63
2023-01-13T01:05:17.267Z,91.67
2023-01-13T01:08:20.128Z,91.77
2023-01-13T01:11:26.119Z,91.83
2023-01-13T01:14:28.843Z,91.35
2023-01-13T01:17:32.553Z,92.19
2023-01-13T01:20:37.161Z,91.91
2023-01-13T01:23:40.746Z,91.06
2023-01-13T01:26:44.987Z,90.55
2023-01-13T01:29:47.689Z,90.59
2023-01-13T01:32:50.440Z,90.58
2023-01-13T01:35:53.634Z,90.82
2023-01-13T01:38:57.830Z,90.94
2023-01-13T01:42:20.775Z,91.81
2023-01-13T01:45:24.971Z,92.09
2023-01-13T01:48:29.657Z,91.44
2023-01-13T01:51:36.853Z,91.50
2023-01-13T01:54:44.044Z,91.76
2023-01-13T01:57:53.669Z,92.24
2023-01-13T02:00:56.409Z,92.49
2023-01-13T02:04:05.203Z,92.45
2023-01-13T02:07:08.323Z,91.88
2023-01-13T02:10:13.611Z,92.40
2023-01-13T02:13:17.635Z,92.97
2023-01-13T02:16:24.639Z,92.81
2023-01-13T02:20:08.463Z,92.73
2023-01-13T02:24:13.463Z,92.64
2023-01-13T02:28:02.793Z,92.86
2023-01-13T02:31:29.006Z,92.97
2023-01-13T02:34:38.946Z,93.40
2023-01-13T02:37:43.939Z,92.64
2023-01-13T02:40:56.784Z,93.13
2023-01-13T02:44:06.711Z,93.55
2023-01-13T02:47:16.211Z,92.64
2023-01-13T02:50:23.073Z,92.55
2023-01-13T02:53:31.680Z,92.81
2023-01-13T02:56:39.629Z,92.87
2023-01-13T02:59:42.995Z,92.52
2023-01-13T03:02:47.695Z,92.23
2023-01-13T03:05:53.813Z,92.67
2023-01-13T03:09:06.726Z,92.16
2023-01-13T03:12:19.400Z,91.09
2023-01-13T03:15:29.474Z,92.01
2023-01-13T03:18:43.935Z,91.27
2023-01-13T03:21:53.782Z,91.86
2023-01-13T03:25:01.962Z,91.85
2023-01-13T03:28:08.887Z,91.29
2023-01-13T03:31:19.305Z,91.54
2023-01-13T03:34:30.268Z,92.16
2023-01-13T03:37:37.769Z,91.47
2023-01-13T03:40:44.786Z,91.46
2023-01-13T03:44:15.258Z,91.69
2023-01-13T03:47:22.427Z,91.61
2023-01-13T03:50:30.979Z,91.84
2023-01-13T03:53:39.679Z,91.92
2023-01-13T03:56:47.505Z,91.88
2023-01-13T03:59:56.168Z,92.15
2023-01-13T04:03:04.839Z,91.96
2023-01-13T04:06:17.089Z,92.41
2023-01-13T04:09:29.843Z,92.24
2023-01-13T04:12:54.295Z,92.14
2023-01-13T04:15:57.127Z,92.06
2023-01-13T04:18:59.957Z,93.22
2023-01-13T04:22:04.101Z,92.89
2023-01-13T04:25:08.006Z,92.73
2023-01-13T04:28:11.781Z,92.71
2023-01-13T04:31:15.196Z,93.62
2023-01-13T04:34:17.883Z,93.36
2023-01-13T04:37:21.876Z,94.25
2023-01-13T04:40:24.754Z,94.58
2023-01-13T04:43:27.300Z,94.84
2023-01-13T04:46:29.971Z,94.51
2023-01-13T04:49:33.252Z,94.70
2023-01-13T04:52:37.314Z,94.95
2023-01-13T04:55:39.995Z,94.48
2023-01-13T04:58:42.678Z,95.11
2023-01-13T05:01:45.403Z,95.03
2023-01-13T05:04:48.432Z,95.19
2023-01-13T05:07:52.510Z,95.25
2023-01-13T05:10:55.506Z,95.39
2023-01-13T05:14:16.409Z,95.76
2023-01-13T05:17:21.077Z,95.37
2023-01-13T05:20:24.843Z,95.84
2023-01-13T05:23:47.703Z,95.24
2023-01-13T05:26:50.381Z,95.63
2023-01-13T05:29:53.785Z,95.93
2023-01-13T05:32:56.914Z,95.54
2023-01-13T05:36:02.780Z,95.23
2023-01-13T05:39:06.783Z,95.28
2023-01-13T05:42:28.195Z,95.09
2023-01-13T05:45:31.612Z,95.22
2023-01-13T05:48:36.159Z,94.92
2023-01-13T05:51:38.761Z,95.15
2023-01-13T05:54:42.805Z,94.85
2023-01-13T05:57:45.482Z,95.01
2023-01-13T06:00:48.787Z,95.25
2023-01-13T06:03:51.476Z,94.87
2023-01-13T06:06:54.162Z,95.21
2023-01-13T06:09:58.226Z,95.42
2023-01-13T06:13:01.136Z,95.32
2023-01-13T06:16:04.179Z,95.25
2023-01-13T06:19:09.037Z,95.36
2023-01-13T06:22:15.779Z,95.09
2023-01-13T06:25:26.204Z,94.95
2023-01-13T06:28:28.917Z,94.82
2023-01-13T06:31:33.809Z,95.02
2023-01-13T06:34:38.103Z,94.90
2023-01-13T06:37:43.471Z,95.00
2023-01-13T06:41:14.091Z,94.64
2023-01-13T06:44:17.735Z,94.65
2023-01-13T06:47:22.415Z,94.24
2023-01-13T06:50:25.541Z,94.18
2023-01-13T06:53:28.239Z,94.20
2023-01-13T06:56:32.348Z,94.52
2023-01-13T06:59:35.338Z,93.96
2023-01-13T07:02:40.351Z,93.74
2023-01-13T07:05:56.245Z,93.36
2023-01-13T07:08:59.303Z,93.52
2023-01-13T07:12:03.914Z,93.25
2023-01-13T07:15:20.133Z,93.46
2023-01-13T07:18:27.637Z,93.26
2023-01-13T07:21:31.076Z,93.33
2023-01-13T07:24:34.199Z,93.22
2023-01-13T07:27:38.708Z,93.14
2023-01-13T07:30:48.452Z,92.61
2023-01-13T07:33:51.442Z,92.25
2023-01-13T07:37:05.664Z,91.90
2023-01-13T07:40:16.556Z,91.92
2023-01-13T07:43:34.912Z,91.79
2023-01-13T07:46:38.342Z,91.56
2023-01-13T07:49:41.145Z,91.97
2023-01-13T07:52:43.909Z,91.33
2023-01-13T07:55:46.737Z,91.63
2023-01-13T07:58:52.964Z,91.55
2023-01-13T08:01:56.124Z,91.04
2023-01-13T08:04:59.937Z,90.25
2023-01-13T08:08:02.598Z,90.20
2023-01-13T08:11:09.188Z,91.11
2023-01-13T08:14:15.909Z,90.20
2023-01-13T08:17:20.446Z,91.15
2023-01-13T08:20:23.671Z,90.40
2023-01-13T08:23:26.409Z,90.96
2023-01-13T08:26:29.126Z,89.89
2023-01-13T08:29:33.378Z,90.02
2023-01-13T08:32:36.176Z,89.56
2023-01-13T08:35:39.822Z,89.28
2023-01-13T08:38:42.728Z,89.29
2023-01-13T08:41:58.756Z,88.74
2023-01-13T08:45:03.171Z,88.61
2023-01-13T08:48:05.977Z,88.76
2023-01-13T08:51:09.500Z,88.36
2023-01-13T08:54:12.583Z,87.83
2023-01-13T08:57:17.107Z,88.46
2023-01-13T09:00:21.932Z,88.07
2023-01-13T09:03:24.815Z,87.99
2023-01-13T09:06:27.703Z,86.55
2023-01-13T09:09:30.687Z,86.56
2023-01-13T09:12:51.882Z,86.85
2023-01-13T09:15:56.951Z,86.72
2023-01-13T09:18:59.961Z,87.68
2023-01-13T09:22:03.809Z,87.39
2023-01-13T09:25:07.222Z,86.82
2023-01-13T09:28:10.189Z,87.83
2023-01-13T09:31:14.509Z,86.68
2023-01-13T09:34:37.823Z,86.75
2023-01-13T09:37:41.625Z,86.73
2023-01-13T09:40:49.022Z,86.67
2023-01-13T09:43:58.115Z,86.62
2023-01-13T09:47:07.109Z,87.18
2023-01-13T09:50:22.039Z,87.79
2023-01-13T09:53:28.858Z,88.14
2023-01-13T09:56:31.898Z,86.53
2023-01-13T09:59:36.522Z,87.77
2023-01-13T10:03:01.609Z,87.40
2023-01-13T10:06:13.516Z,86.67
2023-01-13T10:09:21.873Z,86.56
2023-01-13T10:13:04.827Z,86.77
2023-01-13T10:16:24.071Z,86.67
2023-01-13T10:19:33.117Z,86.85
2023-01-13T10:23:00.120Z,86.67
2023-01-13T10:26:17.922Z,86.54
2023-01-13T10:29:24.908Z,86.41
2023-01-13T10:32:27.949Z,85.38
2023-01-13T10:36:00.696Z,85.73
2023-01-13T10:39:08.721Z,86.12
2023-01-13T10:42:14.453Z,84.79
2023-01-13T10:45:25.425Z,84.85
2023-01-13T10:48:37.664Z,84.41
2023-01-13T10:51:44.980Z,84.32
2023-01-13T10:54:52.354Z,84.19
2023-01-13T10:57:55.336Z,84.26
2023-01-13T11:01:03.992Z,84.57
2023-01-13T11:04:27.036Z,83.96
2023-01-13T11:07:34.136Z,84.21
2023-01-13T11:10:45.427Z,84.14
2023-01-13T11:14:09.590Z,83.48
2023-01-13T11:17:28.006Z,82.21
2023-01-13T11:20:36.973Z,81.82
2023-01-13T11:23:46.627Z,82.27
2023-01-13T11:26:56.576Z,82.98
2023-01-13T11:30:09.955Z,82.87
2023-01-13T11:33:26.633Z,82.68
2023-01-13T11:36:37.779Z,82.68
2023-01-13T11:39:49.237Z,82.28
2023-01-13T11:42:59.955Z,81.53
2023-01-13T11:46:02.943Z,81.28
2023-01-13T11:49:05.999Z,80.25
2023-01-13T11:52:16.525Z,81.32
2023-01-13T11:55:34.266Z,79.53
2023-01-13T11:59:15.268Z,79.79
2023-01-13T12:02:30.749Z,80.06
2023-01-13T12:05:37.285Z,79.86
2023-01-13T12:08:58.463Z,80.25
2023-01-13T12:12:19.585Z,79.33
2023-01-13T12:16:04.771Z,78.84
2023-01-13T12:19:24.411Z,77.63
2023-01-13T12:22:33.766Z,76.06
2023-01-13T12:25:43.824Z,76.91
2023-01-13T12:28:53.033Z,76.11
2023-01-13T12:31:56.505Z,75.74
2023-01-13T12:35:09.066Z,76.56
2023-01-13T12:38:21.120Z,76.45
2023-01-13T12:42:00.269Z,76.22
2023-01-13T12:45:25.979Z,77.33
2023-01-13T12:49:05.244Z,77.95
2023-01-13T12:52:19.867Z,78.60
2023-01-13T12:55:23.713Z,78.68
2023-01-13T12:58:28.558Z,78.03
2023-01-13T13:01:37.669Z,78.34
2023-01-13T13:04:45.081Z,78.40
2023-01-13T13:07:52.059Z,78.22
2023-01-13T13:11:06.535Z,78.49
2023-01-13T13:14:12.392Z,78.72
2023-01-13T13:17:41.387Z,78.41
2023-01-13T13:21:04.235Z,78.39
2023-01-13T13:24:11.067Z,78.80
2023-01-13T13:27:17.452Z,78.71
2023-01-13T13:30:27.808Z,78.86
2023-01-13T13:33:50.382Z,78.79
2023-01-13T13:37:21.774Z,78.58
2023-01-13T13:40:43.558Z,78.92
2023-01-13T13:44:05.225Z,78.67
2023-01-13T13:47:08.485Z,78.22
2023-01-13T13:50:15.954Z,78.84
2023-01-13T13:53:19.840Z,78.42
2023-01-13T13:56:26.039Z,79.26
2023-01-13T13:59:34.506Z,79.13
2023-01-13T14:02:37.724Z,78.59
2023-01-13T14:05:53.804Z,79.10
2023-01-13T14:08:56.536Z,79.07
2023-01-13T14:12:01.662Z,79.26
2023-01-13T14:15:05.569Z,79.45
2023-01-13T14:18:14.086Z,78.78
2023-01-13T14:21:22.327Z,78.76
2023-01-13T14:24:25.466Z,79.99
2023-01-13T14:27:29.357Z,80.23
2023-01-13T14:30:34.010Z,79.97
2023-01-13T14:33:39.072Z,80.82
2023-01-13T14:36:43.375Z,80.84
2023-01-13T14:39:46.331Z,80.54
2023-01-13T14:42:57.178Z,80.95
2023-01-13T14:46:02.928Z,81.63
2023-01-13T14:49:06.099Z,81.92
2023-01-13T14:52:17.003Z,82.19
2023-01-13T14:55:30.207Z,81.76
2023-01-13T14:58:32.966Z,82.04
2023-01-13T15:01:36.937Z,81.44
2023-01-13T15:04:39.744Z,82.04
2023-01-13T15:07:49.169Z,82.71
2023-01-13T15:10:55.569Z,82.79
2023-01-13T15:14:01.507Z,82.41
2023-01-13T15:17:14.633Z,82.04
2023-01-13T15:20:19.322Z,82.40
2023-01-13T15:23:23.430Z,82.69
2023-01-13T15:26:27.627Z,82.10
2023-01-13T15:29:30.443Z,82.95
2023-01-13T15:32:33.096Z,82.79
2023-01-13T15:35:37.732Z,83.04
2023-01-13T15:38:41.712Z,83.27
2023-01-13T15:42:03.045Z,83.33
2023-01-13T15:45:24.823Z,83.24
2023-01-13T15:48:30.707Z,83.64
2023-01-13T15:51:33.604Z,82.99
2023-01-13T15:54:37.639Z,82.41
2023-01-13T15:57:47.963Z,82.29
2023-01-13T16:00:51.704Z,83.05
2023-01-13T16:03:55.912Z,83.56
2023-01-13T16:06:59.590Z,83.63
2023-01-13T16:10:05.059Z,83.83
2023-01-13T16:13:07.909Z,84.09
2023-01-13T16:16:19.276Z,83.72
2023-01-13T16:19:22.842Z,83.44
2023-01-13T16:22:25.994Z,83.11
2023-01-13T16:25:30.028Z,84.46
2023-01-13T16:28:35.414Z,83.67
2023-01-13T16:31:38.906Z,83.67
2023-01-13T16:34:42.038Z,83.49
2023-01-13T16:37:47.232Z,83.68
2023-01-13T16:40:52.836Z,83.71
2023-01-13T16:43:55.655Z,83.46
2023-01-13T16:46:58.231Z,82.85
2023-01-13T16:50:00.924Z,82.98
2023-01-13T16:53:04.977Z,83.91
2023-01-13T16:56:23.434Z,83.65
2023-01-13T16:59:26.236Z,83.55
2023-01-13T17:02:28.927Z,83.71
2023-01-13T17:05:31.641Z,83.57
2023-01-13T17:08:34.369Z,83.36
2023-01-13T17:11:38.425Z,83.72
2023-01-13T17:14:43.316Z,84.24
2023-01-13T17:17:48.895Z,83.79
2023-01-13T17:20:52.010Z,83.49
2023-01-13T17:23:54.966Z,83.53
2023-01-13T17:26:59.147Z,83.25
2023-01-13T17:30:01.898Z,83.47
2023-01-13T17:33:06.717Z,82.82
2023-01-13T17:36:09.935Z,83.23
2023-01-13T17:39:16.204Z,83.78
2023-01-13T17:42:20.513Z,83.85
2023-01-13T17:45:23.189Z,83.43
2023-01-13T17:48:26.035Z,83.88
2023-01-13T17:51:29.880Z,84.17
2023-01-13T17:54:32.754Z,83.72
2023-01-13T17:57:36.885Z,84.87
2023-01-13T18:00:39.584Z,85.75
2023-01-13T18:03:42.399Z,85.22
2023-01-13T18:06:45.607Z,85.26
2023-01-13T18:09:48.323Z,85.03
2023-01-13T18:12:52.358Z,84.73
2023-01-13T18:16:04.279Z,84.90
2023-01-13T18:19:25.704Z,84.47
2023-01-13T18:22:47.033Z,84.53
2023-01-13T18:26:08.222Z,84.65
2023-01-13T18:29:12.411Z,84.67
2023-01-13T18:32:16.135Z,84.78
2023-01-13T18:35:19.082Z,84.83
2023-01-13T18:38:26.320Z,84.70
2023-01-13T18:41:47.849Z,85.37
2023-01-13T18:44:53.221Z,85.13
2023-01-13T18:47:57.774Z,85.10
2023-01-13T18:51:01.013Z,84.71
2023-01-13T18:54:04.451Z,84.13
2023-01-13T18:57:07.377Z,84.46
2023-01-13T19:00:14.913Z,84.73
2023-01-13T19:03:29.552Z,84.86
2023-01-13T19:06:33.785Z,84.96
2023-01-13T19:09:36.570Z,84.28
2023-01-13T19:12:39.492Z,84.69
2023-01-13T19:15:43.848Z,84.01
2023-01-13T19:18:47.124Z,85.27
2023-01-13T19:21:50.237Z,84.63
2023-01-13T19:24:53.310Z,84.57
2023-01-13T19:27:56.194Z,84.74
2023-01-13T19:31:02.463Z,84.61
2023-01-13T19:34:05.859Z,84.72
2023-01-13T19:37:08.633Z,84.96
2023-01-13T19:40:15.779Z,85.30
2023-01-13T19:43:37.337Z,85.72
2023-01-13T19:46:41.587Z,86.14
2023-01-13T19:49:44.488Z,86.03
2023-01-13T19:52:47.791Z,86.06
2023-01-13T19:55:50.888Z,84.91
2023-01-13T19:58:54.133Z,85.57
2023-01-13T20:02:00.758Z,86.11
2023-01-13T20:05:05.868Z,87.14
2023-01-13T20:08:08.878Z,86.59
2023-01-13T20:11:21.498Z,87.38
2023-01-13T20:14:25.889Z,86.48
2023-01-13T20:17:30.873Z,87.35
2023-01-13T20:20:37.159Z,87.71
2023-01-13T20:23:40.036Z,87.85
2023-01-13T20:26:42.797Z,87.69
2023-01-13T20:29:47.837Z,86.87
2023-01-13T20:32:52.656Z,87.19
2023-01-13T20:35:58.354Z,86.90
2023-01-13T20:39:02.403Z,87.23
2023-01-13T20:42:24.132Z,87.84
2023-01-13T20:45:26.842Z,87.46
2023-01-13T20:48:30.810Z,87.50
2023-01-13T20:51:33.681Z,87.58
2023-01-13T20:54:37.125Z,88.70
2023-01-13T20:57:41.714Z,88.92
2023-01-13T21:00:44.890Z,88.93
2023-01-13T21:03:49.177Z,88.22
2023-01-13T21:06:52.371Z,88.08
2023-01-13T21:09:55.118Z,87.83
2023-01-13T21:13:16.190Z,88.36
2023-01-13T21:16:18.888Z,88.75
2023-01-13T21:19:22.984Z,88.53
2023-01-13T21:22:25.679Z,88.84
2023-01-13T21:25:28.858Z,89.00
2023-01-13T21:28:58.159Z,89.49
2023-01-13T21:32:01.027Z,89.68
2023-01-13T21:35:05.797Z,89.55
2023-01-13T21:38:10.517Z,88.61
2023-01-13T21:41:14.427Z,90.77
2023-01-13T21:44:38.890Z,90.95
2023-01-13T21:47:50.390Z,90.91
2023-01-13T21:50:54.694Z,90.37
2023-01-13T21:53:57.612Z,90.56
2023-01-13T21:57:00.350Z,90.71
2023-01-13T22:00:05.315Z,89.86
2023-01-13T22:03:09.695Z,89.18
2023-01-13T22:06:13.842Z,87.51
2023-01-13T22:09:16.888Z,87.23
2023-01-13T22:12:23.526Z,87.59
2023-01-13T22:15:28.325Z,88.12
2023-01-13T22:18:30.983Z,88.83
2023-01-13T22:21:35.684Z,88.88
2023-01-13T22:24:43.100Z,89.64
2023-01-13T22:27:48.184Z,89.24
2023-01-13T22:30:53.465Z,89.87
2023-01-13T22:33:56.124Z,90.55
2023-01-13T22:37:00.377Z,90.21
2023-01-13T22:40:03.979Z,89.72
2023-01-13T22:43:06.836Z,89.64
2023-01-13T22:46:11.657Z,90.05
2023-01-13T22:49:15.329Z,90.13
2023-01-13T22:52:20.285Z,90.39
2023-01-13T22:55:23.073Z,90.57
2023-01-13T22:58:26.317Z,90.37
2023-01-13T23:01:30.926Z,90.09
2023-01-13T23:04:33.776Z,90.68
2023-01-13T23:07:37.871Z,90.19
2023-01-13T23:10:41.812Z,90.57
2023-01-13T23:13:45.409Z,91.11
2023-01-13T23:16:48.110Z,90.51
2023-01-13T23:19:50.902Z,90.74
2023-01-13T23:22:55.075Z,89.83
2023-01-13T23:25:57.818Z,88.14
2023-01-13T23:29:02.023Z,87.92
2023-01-13T23:32:05.295Z,88.79
2023-01-13T23:35:09.041Z,89.35
2023-01-13T23:38:13.243Z,88.75
2023-01-13T23:41:18.943Z,87.81
2023-01-13T23:44:21.667Z,88.08
2023-01-13T23:47:24.351Z,88.20
2023-01-13T23:50:28.866Z,88.92
2023-01-13T23:53:35.408Z,89.51
2023-01-13T23:56:39.566Z,89.42
2023-01-13T23:59:42.432Z,89.09
